createdAt,value
2018-04-29T00:00:35.313Z,58.03
2018-04-29T00:01:35.327Z,58.31
2018-04-29T00:02:35.340Z,59.07
2018-04-29T00:03:35.354Z,58.98
2018-04-29T00:04:35.366Z,59.27
2018-04-29T00:05:35.381Z,59.74
2018-04-29T00:06:35.394Z,59.45
2018-04-29T00:07:35.411Z,59.83
2018-04-29T00:08:35.422Z,59.45
2018-04-29T00:09:35.436Z,59.17
2018-04-29T00:10:35.451Z,58.98
2018-04-29T00:11:35.463Z,58.59
2018-04-29T00:12:35.477Z,58.40
2018-04-29T00:13:35.490Z,58.88
2018-04-29T00:14:35.503Z,59.07
2018-04-29T00:15:35.517Z,58.98
2018-04-29T00:16:35.530Z,59.07
2018-04-29T00:17:35.544Z,58.79
2018-04-29T00:18:35.559Z,58.79
2018-04-29T00:19:35.576Z,58.79
2018-04-29T00:20:35.583Z,59.07
2018-04-29T00:21:35.597Z,58.98
2018-04-29T00:22:35.605Z,58.79
2018-04-29T00:23:35.623Z,58.69
2018-04-29T00:24:35.631Z,58.31
2018-04-29T00:25:35.646Z,58.31
2018-04-29T00:26:35.659Z,57.74
2018-04-29T00:27:35.673Z,59.17
2018-04-29T00:28:35.687Z,59.27
2018-04-29T00:29:35.699Z,59.55
2018-04-29T00:30:35.713Z,59.45
2018-04-29T00:31:35.726Z,59.64
2018-04-29T00:32:35.738Z,59.27
2018-04-29T00:33:35.753Z,59.36
2018-04-29T00:34:35.766Z,59.83
2018-04-29T00:35:35.780Z,59.36
2018-04-29T00:36:35.794Z,58.98
2018-04-29T00:37:35.805Z,58.40
2018-04-29T00:38:35.896Z,58.31
2018-04-29T00:39:35.836Z,58.98
2018-04-29T00:40:35.845Z,58.50
2018-04-29T00:41:35.858Z,58.31
2018-04-29T00:42:35.874Z,58.40
2018-04-29T00:43:35.893Z,58.69
2018-04-29T00:44:35.899Z,58.22
2018-04-29T00:45:35.913Z,57.74
2018-04-29T00:46:35.930Z,58.03
2018-04-29T00:47:35.942Z,57.84
2018-04-29T00:48:35.953Z,56.79
2018-04-29T00:49:35.968Z,56.79
2018-04-29T00:50:35.982Z,57.07
2018-04-29T00:51:35.994Z,56.88
2018-04-29T00:52:36.009Z,56.51
2018-04-29T00:53:36.020Z,56.98
2018-04-29T00:54:36.037Z,56.98
2018-04-29T00:55:36.054Z,57.07
2018-04-29T00:56:36.061Z,57.17
2018-04-29T00:57:36.073Z,56.70
2018-04-29T00:58:36.089Z,56.63
2018-04-29T00:59:36.101Z,56.98
2018-04-29T01:00:36.114Z,56.98
2018-04-29T01:01:36.127Z,56.88
2018-04-29T01:02:36.142Z,57.17
2018-04-29T01:03:36.156Z,57.17
2018-04-29T01:04:36.172Z,56.98
2018-04-29T01:05:36.185Z,56.53
2018-04-29T01:06:36.200Z,56.51
2018-04-29T01:07:36.210Z,56.44
2018-04-29T01:08:36.224Z,56.82
2018-04-29T01:09:36.241Z,56.63
2018-04-29T01:10:36.250Z,57.10
2018-04-29T01:11:36.263Z,57.20
2018-04-29T01:12:36.276Z,57.26
2018-04-29T01:13:36.294Z,58.12
2018-04-29T01:14:36.304Z,59.07
2018-04-29T01:15:36.316Z,59.27
2018-04-29T01:16:36.329Z,59.55
2018-04-29T01:17:36.345Z,60.02
2018-04-29T01:18:36.358Z,59.93
2018-04-29T01:19:36.371Z,60.12
2018-04-29T01:20:36.383Z,60.21
2018-04-29T01:21:36.397Z,59.45
2018-04-29T01:22:36.411Z,60.02
2018-04-29T01:23:36.428Z,60.50
2018-04-29T01:24:36.436Z,59.93
2018-04-29T01:25:36.456Z,59.83
2018-04-29T01:26:36.463Z,60.31
2018-04-29T01:27:36.478Z,60.60
2018-04-29T01:28:36.492Z,60.50
2018-04-29T01:29:36.505Z,60.50
2018-04-29T01:30:36.520Z,60.88
2018-04-29T01:31:36.531Z,61.13
2018-04-29T01:32:36.548Z,61.71
2018-04-29T01:33:36.557Z,61.64
2018-04-29T01:34:36.572Z,61.52
2018-04-29T01:35:36.584Z,61.74
2018-04-29T01:36:36.597Z,62.08
2018-04-29T01:37:36.611Z,62.75
2018-04-29T01:38:36.625Z,62.65
2018-04-29T01:39:36.637Z,62.94
2018-04-29T01:40:36.649Z,62.94
2018-04-29T01:41:36.660Z,62.37
2018-04-29T01:42:36.675Z,61.90
2018-04-29T01:43:36.688Z,61.32
2018-04-29T01:44:36.700Z,61.26
2018-04-29T01:45:36.715Z,61.45
2018-04-29T01:46:36.737Z,60.57
2018-04-29T01:47:36.739Z,59.93
2018-04-29T01:48:36.752Z,59.27
2018-04-29T01:49:36.766Z,59.64
2018-04-29T01:50:36.783Z,59.64
2018-04-29T01:51:36.870Z,59.36
2018-04-29T01:52:36.807Z,59.64
2018-04-29T01:53:36.817Z,60.02
2018-04-29T01:54:36.829Z,59.64
2018-04-29T01:55:36.845Z,59.27
2018-04-29T01:56:36.857Z,59.93
2018-04-29T01:57:36.869Z,59.27
2018-04-29T01:58:36.882Z,58.98
2018-04-29T01:59:36.894Z,58.98
2018-04-29T02:00:36.907Z,59.83
2018-04-29T02:01:36.921Z,59.74
2018-04-29T02:02:36.935Z,59.74
2018-04-29T02:03:36.949Z,59.36
2018-04-29T02:04:36.957Z,59.27
2018-04-29T02:05:36.972Z,59.07
2018-04-29T02:06:36.986Z,59.17
2018-04-29T02:07:36.998Z,58.22
2018-04-29T02:08:37.010Z,58.12
2018-04-29T02:09:37.027Z,58.12
2018-04-29T02:10:37.039Z,58.31
2018-04-29T02:11:37.051Z,58.03
2018-04-29T02:12:37.067Z,58.31
2018-04-29T02:13:37.075Z,58.22
2018-04-29T02:14:37.088Z,58.03
2018-04-29T02:15:37.102Z,58.98
2018-04-29T02:16:37.119Z,58.31
2018-04-29T02:17:37.126Z,58.40
2018-04-29T02:18:37.140Z,58.22
2018-04-29T02:19:37.155Z,58.59
2018-04-29T02:20:37.166Z,58.40
2018-04-29T02:21:37.180Z,58.40
2018-04-29T02:22:37.195Z,58.59
2018-04-29T02:23:37.206Z,58.50
2018-04-29T02:24:37.216Z,58.79
2018-04-29T02:25:37.232Z,59.17
2018-04-29T02:26:37.245Z,59.07
2018-04-29T02:27:37.259Z,59.17
2018-04-29T02:28:37.270Z,59.55
2018-04-29T02:29:37.290Z,59.64
2018-04-29T02:30:37.298Z,60.09
2018-04-29T02:31:37.310Z,59.80
2018-04-29T02:32:37.325Z,60.18
2018-04-29T02:33:37.338Z,60.47
2018-04-29T02:34:37.350Z,60.02
2018-04-29T02:35:37.368Z,59.52
2018-04-29T02:36:37.375Z,59.71
2018-04-29T02:37:37.388Z,59.23
2018-04-29T02:38:37.406Z,59.23
2018-04-29T02:39:37.416Z,59.33
2018-04-29T02:40:37.432Z,59.23
2018-04-29T02:41:37.442Z,59.71
2018-04-29T02:42:37.454Z,59.71
2018-04-29T02:43:37.468Z,59.14
2018-04-29T02:44:37.476Z,59.52
2018-04-29T02:45:37.491Z,59.52
2018-04-29T02:46:37.509Z,59.05
2018-04-29T02:47:37.519Z,59.33
2018-04-29T02:48:37.532Z,59.33
2018-04-29T02:49:37.547Z,59.14
2018-04-29T02:50:37.558Z,59.33
2018-04-29T02:51:37.570Z,59.33
2018-04-29T02:52:37.583Z,58.95
2018-04-29T02:53:37.596Z,58.98
2018-04-29T02:54:37.610Z,59.14
2018-04-29T02:55:37.621Z,59.14
2018-04-29T02:56:37.637Z,58.95
2018-04-29T02:57:37.646Z,59.14
2018-04-29T02:58:37.659Z,59.07
2018-04-29T02:59:37.672Z,58.95
2018-04-29T03:00:37.693Z,58.59
2018-04-29T03:01:37.698Z,58.31
2018-04-29T03:02:37.716Z,57.90
2018-04-29T03:03:37.725Z,57.71
2018-04-29T03:04:37.741Z,57.55
2018-04-29T03:05:37.748Z,57.55
2018-04-29T03:06:37.763Z,57.93
2018-04-29T03:07:37.777Z,57.26
2018-04-29T03:08:37.787Z,56.98
2018-04-29T03:09:37.798Z,57.45
2018-04-29T03:10:37.814Z,57.74
2018-04-29T03:11:37.828Z,58.22
2018-04-29T03:12:37.838Z,58.31
2018-04-29T03:13:37.851Z,58.31
2018-04-29T03:14:37.865Z,58.12
2018-04-29T03:15:37.877Z,58.31
2018-04-29T03:16:37.890Z,58.40
2018-04-29T03:17:37.902Z,59.83
2018-04-29T03:18:37.917Z,59.83
2018-04-29T03:19:37.930Z,60.02
2018-04-29T03:20:37.942Z,60.28
2018-04-29T03:21:37.956Z,59.99
2018-04-29T03:22:37.971Z,59.80
2018-04-29T03:23:37.980Z,59.45
2018-04-29T03:24:37.993Z,59.33
2018-04-29T03:25:38.007Z,59.71
2018-04-29T03:26:38.020Z,59.80
2018-04-29T03:27:38.033Z,59.80
2018-04-29T03:28:38.046Z,59.93
2018-04-29T03:29:38.060Z,59.61
2018-04-29T03:30:38.073Z,59.52
2018-04-29T03:31:38.085Z,59.33
2018-04-29T03:32:38.096Z,59.14
2018-04-29T03:33:38.110Z,58.76
2018-04-29T03:34:38.122Z,59.14
2018-04-29T03:35:38.135Z,58.31
2018-04-29T03:36:38.147Z,58.76
2018-04-29T03:37:38.162Z,58.95
2018-04-29T03:38:38.177Z,59.27
2018-04-29T03:39:38.188Z,59.27
2018-04-29T03:40:38.199Z,59.71
2018-04-29T03:41:38.213Z,59.80
2018-04-29T03:42:38.225Z,59.52
2018-04-29T03:43:38.239Z,59.90
2018-04-29T03:44:38.252Z,59.23
2018-04-29T03:45:38.264Z,59.05
2018-04-29T03:46:38.276Z,59.14
2018-04-29T03:47:38.288Z,59.27
2018-04-29T03:48:38.300Z,59.64
2018-04-29T03:49:38.314Z,60.38
2018-04-29T03:50:38.326Z,60.57
2018-04-29T03:51:38.340Z,61.32
2018-04-29T03:52:38.351Z,61.80
2018-04-29T03:53:38.369Z,62.08
2018-04-29T03:54:38.377Z,62.18
2018-04-29T03:55:38.392Z,62.18
2018-04-29T03:56:38.402Z,62.37
2018-04-29T03:57:38.415Z,62.46
2018-04-29T03:58:38.429Z,62.56
2018-04-29T03:59:38.441Z,61.99
2018-04-29T04:00:38.454Z,61.71
2018-04-29T04:01:38.466Z,61.52
2018-04-29T04:02:38.504Z,61.61
2018-04-29T04:03:38.491Z,61.32
2018-04-29T04:04:38.504Z,60.94
2018-04-29T04:05:38.516Z,60.57
2018-04-29T04:06:38.528Z,59.71
2018-04-29T04:07:38.543Z,60.66
2018-04-29T04:08:38.554Z,61.99
2018-04-29T04:09:38.590Z,62.18
2018-04-29T04:10:38.580Z,61.80
2018-04-29T04:11:38.591Z,61.32
2018-04-29T04:12:38.603Z,61.61
2018-04-29T04:13:38.617Z,61.52
2018-04-29T04:14:38.629Z,61.52
2018-04-29T04:15:38.642Z,61.71
2018-04-29T04:16:38.661Z,61.80
2018-04-29T04:17:38.668Z,62.27
2018-04-29T04:18:38.683Z,63.23
2018-04-29T04:19:38.694Z,63.23
2018-04-29T04:20:38.704Z,63.23
2018-04-29T04:21:38.718Z,63.04
2018-04-29T04:22:38.736Z,62.56
2018-04-29T04:23:38.755Z,62.27
2018-04-29T04:24:38.755Z,60.94
2018-04-29T04:25:38.770Z,60.28
2018-04-29T04:26:38.784Z,60.85
2018-04-29T04:27:38.794Z,60.47
2018-04-29T04:28:38.807Z,61.13
2018-04-29T04:29:38.818Z,60.94
2018-04-29T04:30:38.830Z,61.04
2018-04-29T04:31:38.842Z,60.75
2018-04-29T04:32:38.855Z,60.47
2018-04-29T04:33:38.866Z,60.66
2018-04-29T04:34:38.879Z,60.57
2018-04-29T04:35:38.893Z,60.28
2018-04-29T04:36:38.908Z,60.09
2018-04-29T04:37:38.917Z,59.61
2018-04-29T04:38:38.933Z,59.52
2018-04-29T04:39:38.941Z,59.33
2018-04-29T04:40:38.958Z,59.52
2018-04-29T04:41:38.970Z,59.71
2018-04-29T04:42:38.980Z,59.61
2018-04-29T04:43:38.991Z,59.42
2018-04-29T04:44:39.002Z,59.23
2018-04-29T04:45:39.017Z,58.76
2018-04-29T04:46:39.027Z,59.05
2018-04-29T04:47:39.045Z,59.23
2018-04-29T04:49:39.065Z,58.98
2018-04-29T04:50:39.175Z,59.14
2018-04-29T04:51:39.091Z,58.95
2018-04-29T04:52:39.102Z,59.05
2018-04-29T04:53:39.118Z,58.95
2018-04-29T04:54:39.126Z,59.05
2018-04-29T04:55:39.144Z,58.95
2018-04-29T04:56:39.153Z,59.33
2018-04-29T04:57:39.165Z,59.33
2018-04-29T04:58:39.178Z,59.71
2018-04-29T04:59:39.191Z,59.42
2018-04-29T05:00:39.205Z,59.45
2018-04-29T05:01:39.216Z,59.07
2018-04-29T05:02:39.228Z,59.14
2018-04-29T05:03:39.240Z,59.17
2018-04-29T05:04:39.251Z,59.27
2018-04-29T05:05:39.268Z,59.17
2018-04-29T05:06:39.277Z,59.64
2018-04-29T05:07:39.290Z,59.74
2018-04-29T05:08:39.302Z,59.55
2018-04-29T05:09:39.315Z,59.45
2018-04-29T05:10:39.327Z,59.64
2018-04-29T05:11:39.340Z,59.55
2018-04-29T05:12:39.352Z,59.07
2018-04-29T05:13:39.388Z,58.98
2018-04-29T05:14:39.379Z,59.07
2018-04-29T05:15:39.391Z,58.31
2018-04-29T05:16:39.403Z,58.50
2018-04-29T05:17:39.416Z,58.31
2018-04-29T05:18:39.430Z,58.50
2018-04-29T05:19:39.443Z,58.12
2018-04-29T05:20:39.461Z,58.98
2018-04-29T05:21:39.468Z,59.74
2018-04-29T05:22:39.481Z,59.93
2018-04-29T05:23:39.494Z,60.69
2018-04-29T05:24:39.505Z,60.78
2018-04-29T05:25:39.522Z,60.12
2018-04-29T05:26:39.533Z,60.21
2018-04-29T05:27:39.545Z,60.41
2018-04-29T05:28:39.558Z,59.45
2018-04-29T05:29:39.569Z,59.71
2018-04-29T05:30:39.585Z,59.64
2018-04-29T05:31:39.596Z,59.64
2018-04-29T05:32:39.610Z,59.93
2018-04-29T05:33:39.624Z,59.55
2018-04-29T05:34:39.639Z,59.74
2018-04-29T05:35:39.648Z,59.55
2018-04-29T05:36:39.664Z,59.64
2018-04-29T05:37:39.674Z,59.27
2018-04-29T05:38:39.686Z,58.79
2018-04-29T05:39:39.700Z,58.50
2018-04-29T05:40:39.710Z,58.12
2018-04-29T05:41:39.722Z,58.31
2018-04-29T05:42:39.738Z,58.50
2018-04-29T05:43:39.753Z,58.12
2018-04-29T05:44:39.766Z,58.98
2018-04-29T05:45:39.776Z,59.07
2018-04-29T05:46:39.788Z,59.27
2018-04-29T05:47:39.801Z,59.17
2018-04-29T05:48:39.813Z,59.17
2018-04-29T05:49:39.826Z,59.27
2018-04-29T05:50:39.840Z,58.79
2018-04-29T05:51:39.852Z,59.27
2018-04-29T05:52:39.866Z,59.07
2018-04-29T05:53:39.881Z,59.07
2018-04-29T05:54:39.892Z,59.17
2018-04-29T05:55:39.905Z,59.07
2018-04-29T05:56:39.916Z,59.36
2018-04-29T05:57:39.935Z,60.31
2018-04-29T05:58:39.944Z,59.45
2018-04-29T05:59:39.956Z,59.55
2018-04-29T06:00:39.969Z,58.40
2018-04-29T06:01:39.982Z,58.98
2018-04-29T06:02:39.995Z,58.98
2018-04-29T06:03:40.009Z,59.29
2018-04-29T06:04:40.021Z,60.05
2018-04-29T06:05:40.035Z,59.48
2018-04-29T06:06:40.188Z,59.10
2018-04-29T06:07:40.062Z,59.86
2018-04-29T06:08:40.074Z,59.77
2018-04-29T06:09:40.090Z,59.77
2018-04-29T06:10:40.109Z,59.39
2018-04-29T06:11:40.113Z,58.53
2018-04-29T06:12:40.126Z,57.67
2018-04-29T06:13:40.140Z,58.15
2018-04-29T06:14:40.153Z,59.58
2018-04-29T06:15:40.166Z,58.44
2018-04-29T06:16:40.183Z,59.10
2018-04-29T06:17:40.192Z,59.77
2018-04-29T06:18:40.205Z,59.29
2018-04-29T06:19:40.220Z,59.39
2018-04-29T06:20:40.230Z,60.72
2018-04-29T06:21:40.244Z,60.24
2018-04-29T06:22:40.256Z,60.34
2018-04-29T06:23:40.270Z,59.96
2018-04-29T06:24:40.283Z,59.29
2018-04-29T06:25:40.298Z,59.29
2018-04-29T06:26:40.309Z,58.62
2018-04-29T06:27:40.324Z,59.10
2018-04-29T06:28:40.336Z,59.58
2018-04-29T06:29:40.348Z,59.86
2018-04-29T06:30:40.362Z,60.82
2018-04-29T06:31:40.373Z,60.53
2018-04-29T06:32:40.393Z,60.82
2018-04-29T06:33:40.403Z,60.63
2018-04-29T06:34:40.414Z,59.77
2018-04-29T06:35:40.427Z,60.08
2018-04-29T06:36:40.440Z,60.18
2018-04-29T06:37:40.453Z,59.32
2018-04-29T06:38:40.469Z,57.80
2018-04-29T06:39:40.480Z,58.37
2018-04-29T06:40:40.495Z,58.84
2018-04-29T06:41:40.507Z,57.42
2018-04-29T06:42:40.519Z,59.23
2018-04-29T06:43:40.534Z,58.75
2018-04-29T06:44:40.546Z,59.32
2018-04-29T06:45:40.561Z,59.70
2018-04-29T06:46:40.572Z,59.32
2018-04-29T06:47:40.585Z,59.32
2018-04-29T06:48:40.598Z,59.70
2018-04-29T06:49:40.614Z,60.08
2018-04-29T06:50:40.711Z,58.84
2018-04-29T06:51:40.639Z,58.37
2018-04-29T06:52:40.651Z,57.80
2018-04-29T06:53:40.666Z,57.80
2018-04-29T06:54:40.682Z,56.75
2018-04-29T06:55:40.694Z,56.75
2018-04-29T06:56:40.705Z,58.28
2018-04-29T06:57:40.718Z,59.03
2018-04-29T06:58:40.737Z,57.04
2018-04-29T06:59:40.746Z,57.51
2018-04-29T07:00:40.761Z,56.65
2018-04-29T07:01:40.772Z,57.04
2018-04-29T07:02:40.786Z,58.37
2018-04-29T07:03:40.799Z,59.23
2018-04-29T07:04:40.815Z,58.37
2018-04-29T07:05:40.826Z,58.18
2018-04-29T07:06:40.839Z,57.70
2018-04-29T07:07:40.850Z,57.13
2018-04-29T07:08:40.864Z,56.78
2018-04-29T07:09:40.880Z,57.54
2018-04-29T07:10:40.895Z,56.78
2018-04-29T07:11:40.906Z,56.11
2018-04-29T07:12:40.922Z,56.49
2018-04-29T07:13:40.938Z,56.14
2018-04-29T07:14:40.945Z,54.04
2018-04-29T07:15:40.961Z,55.09
2018-04-29T07:16:40.976Z,54.61
2018-04-29T07:17:40.987Z,55.09
2018-04-29T07:18:41.006Z,55.28
2018-04-29T07:19:41.013Z,55.60
2018-04-29T07:20:41.027Z,54.07
2018-04-29T07:21:41.049Z,53.76
2018-04-29T07:22:41.052Z,54.90
2018-04-29T07:23:41.072Z,57.67
2018-04-29T07:24:41.084Z,58.24
2018-04-29T07:25:41.096Z,56.04
2018-04-29T07:26:41.111Z,55.47
2018-04-29T07:27:41.129Z,54.71
2018-04-29T07:28:41.145Z,54.71
2018-04-29T07:29:41.157Z,55.57
2018-04-29T07:30:41.165Z,56.36
2018-04-29T07:31:41.178Z,56.55
2018-04-29T07:32:41.191Z,56.90
2018-04-29T07:33:41.208Z,57.00
2018-04-29T07:34:41.219Z,56.81
2018-04-29T07:35:41.233Z,57.38
2018-04-29T07:36:41.248Z,59.79
2018-04-29T07:37:41.264Z,57.31
2018-04-29T07:38:41.322Z,57.12
2018-04-29T07:39:41.305Z,56.36
2018-04-29T07:40:41.303Z,55.12
2018-04-29T07:41:41.317Z,54.45
2018-04-29T07:42:41.333Z,55.41
2018-04-29T07:43:41.344Z,55.24
2018-04-29T07:44:41.357Z,56.67
2018-04-29T07:45:41.375Z,54.29
2018-04-29T07:46:41.387Z,54.29
2018-04-29T07:47:41.407Z,55.15
2018-04-29T07:48:41.413Z,57.15
2018-04-29T07:49:41.428Z,54.57
2018-04-29T07:50:41.443Z,54.29
2018-04-29T07:51:41.458Z,54.57
2018-04-29T07:52:41.545Z,55.62
2018-04-29T07:53:41.486Z,56.87
2018-04-29T07:54:41.499Z,55.43
2018-04-29T07:55:41.512Z,55.18
2018-04-29T07:56:41.527Z,54.60
2018-04-29T07:57:41.541Z,55.36
2018-04-29T07:58:41.557Z,53.14
2018-04-29T07:59:41.595Z,53.93
2018-04-29T08:00:41.635Z,54.19
2018-04-29T08:01:41.598Z,57.18
2018-04-29T08:02:41.617Z,56.51
2018-04-29T08:03:41.634Z,54.60
2018-04-29T08:04:41.642Z,56.41
2018-04-29T08:05:41.659Z,56.99
2018-04-29T08:06:41.676Z,55.84
2018-04-29T08:07:41.687Z,54.89
2018-04-29T08:08:41.701Z,54.89
2018-04-29T08:09:41.725Z,54.22
2018-04-29T08:10:41.732Z,53.74
2018-04-29T08:11:41.746Z,52.72
2018-04-29T08:12:41.759Z,52.05
2018-04-29T08:13:41.775Z,51.57
2018-04-29T08:14:41.790Z,52.55
2018-04-29T08:15:41.900Z,51.09
2018-04-29T08:16:41.818Z,47.08
2018-04-29T08:17:41.834Z,44.31
2018-04-29T08:18:41.850Z,48.49
2018-04-29T08:19:41.865Z,50.88
2018-04-29T08:20:41.879Z,51.45
2018-04-29T08:21:41.898Z,53.10
2018-04-29T08:22:41.934Z,53.10
2018-04-29T08:23:41.925Z,52.72
2018-04-29T08:24:41.940Z,50.71
2018-04-29T08:25:41.956Z,50.62
2018-04-29T08:26:41.970Z,50.52
2018-04-29T08:27:41.984Z,51.00
2018-04-29T08:28:42.003Z,52.15
2018-04-29T08:29:42.017Z,51.86
2018-04-29T08:30:42.035Z,53.58
2018-04-29T08:31:42.055Z,48.83
2018-04-29T08:32:42.063Z,48.73
2018-04-29T08:33:42.080Z,49.47
2018-04-29T08:34:42.093Z,50.04
2018-04-29T08:35:42.110Z,48.23
2018-04-29T08:36:42.124Z,48.99
2018-04-29T08:37:42.137Z,48.90
2018-04-29T08:38:42.155Z,49.93
2018-04-29T08:39:42.170Z,51.17
2018-04-29T08:40:42.188Z,52.50
2018-04-29T08:41:42.208Z,53.74
2018-04-29T08:42:42.216Z,52.12
2018-04-29T08:43:42.234Z,53.36
2018-04-29T08:44:42.245Z,52.22
2018-04-29T08:45:42.266Z,51.93
2018-04-29T08:46:42.282Z,52.00
2018-04-29T08:47:42.294Z,52.38
2018-04-29T08:48:42.350Z,53.62
2018-04-29T08:49:42.324Z,53.81
2018-04-29T08:50:42.341Z,54.67
2018-04-29T08:51:42.356Z,56.13
2018-04-29T08:52:42.369Z,54.89
2018-04-29T08:53:42.388Z,54.03
2018-04-29T08:54:42.401Z,52.57
2018-04-29T08:55:42.417Z,53.74
2018-04-29T08:56:42.431Z,52.22
2018-04-29T08:57:42.447Z,53.45
2018-04-29T08:58:42.466Z,54.03
2018-04-29T08:59:42.482Z,52.69
2018-04-29T09:00:42.496Z,53.93
2018-04-29T09:01:42.531Z,54.25
2018-04-29T09:02:42.526Z,52.03
2018-04-29T09:03:42.665Z,50.98
2018-04-29T09:04:42.554Z,50.71
2018-04-29T09:05:42.574Z,50.43
2018-04-29T09:06:42.588Z,52.81
2018-04-29T09:07:42.608Z,55.30
2018-04-29T09:08:42.620Z,52.15
2018-04-29T09:09:42.633Z,50.04
2018-04-29T09:10:42.652Z,51.35
2018-04-29T09:11:42.674Z,52.40
2018-04-29T09:12:42.681Z,54.50
2018-04-29T09:13:42.697Z,55.08
2018-04-29T09:14:42.714Z,54.13
2018-04-29T09:15:42.728Z,52.98
2018-04-29T09:16:42.746Z,54.50
2018-04-29T09:17:42.775Z,59.41
2018-04-29T09:18:42.776Z,52.72
2018-04-29T09:19:42.790Z,51.38
2018-04-29T09:20:42.811Z,49.69
2018-04-29T09:21:42.821Z,49.90
2018-04-29T09:22:42.839Z,48.02
2018-04-29T09:23:42.854Z,46.31
2018-04-29T09:24:42.869Z,47.08
2018-04-29T09:25:42.886Z,45.84
2018-04-29T09:26:42.904Z,49.95
2018-04-29T09:27:42.918Z,50.65
2018-04-29T09:28:42.932Z,50.26
2018-04-29T09:29:42.951Z,49.98
2018-04-29T09:30:42.967Z,50.77
2018-04-29T09:31:42.983Z,49.43
2018-04-29T09:32:43.000Z,49.91
2018-04-29T09:33:43.013Z,49.91
2018-04-29T09:34:43.029Z,50.10
2018-04-29T09:35:43.044Z,47.32
2018-04-29T09:36:43.063Z,45.69
2018-04-29T09:37:43.081Z,46.08
2018-04-29T09:38:43.094Z,48.28
2018-04-29T09:39:43.112Z,45.69
2018-04-29T09:40:43.126Z,47.32
2018-04-29T09:41:43.149Z,48.44
2018-04-29T09:42:43.162Z,48.25
2018-04-29T09:43:43.218Z,49.79
2018-04-29T09:44:43.194Z,48.33
2018-04-29T09:45:43.212Z,48.90
2018-04-29T09:46:43.228Z,48.42
2018-04-29T09:47:43.245Z,49.76
2018-04-29T09:48:43.362Z,48.71
2018-04-29T09:49:43.279Z,48.78
2018-04-29T09:50:43.305Z,48.21
2018-04-29T09:51:43.316Z,49.93
2018-04-29T09:52:43.332Z,49.09
2018-04-29T09:53:43.349Z,47.85
2018-04-29T09:54:43.363Z,48.80
2018-04-29T09:55:43.384Z,49.09
2018-04-29T09:56:43.399Z,49.60
2018-04-29T09:57:43.417Z,48.64
2018-04-29T09:58:43.435Z,47.01
2018-04-29T09:59:43.451Z,46.94
2018-04-29T10:00:43.468Z,46.36
2018-04-29T10:01:43.487Z,44.98
2018-04-29T10:02:43.505Z,47.25
2018-04-29T10:03:43.522Z,47.92
2018-04-29T10:04:43.539Z,46.77
2018-04-29T10:05:43.554Z,47.44
2018-04-29T10:06:43.572Z,47.66
2018-04-29T10:07:43.596Z,48.73
2018-04-29T10:08:43.609Z,45.94
2018-04-29T10:09:43.630Z,46.94
2018-04-29T10:10:43.642Z,49.14
2018-04-29T10:11:43.666Z,50.02
2018-04-29T10:12:43.674Z,47.61
2018-04-29T10:13:43.701Z,48.30
2018-04-29T10:14:43.709Z,48.57
2018-04-29T10:15:43.725Z,49.23
2018-04-29T10:16:43.742Z,49.23
2018-04-29T10:17:43.762Z,48.75
2018-04-29T10:18:43.832Z,50.98
2018-04-29T10:19:43.795Z,48.68
2018-04-29T10:20:43.811Z,49.74
2018-04-29T10:21:43.826Z,48.47
2018-04-29T10:22:43.845Z,50.29
2018-04-29T10:23:43.862Z,49.98
2018-04-29T10:24:43.981Z,50.45
2018-04-29T10:25:43.894Z,50.76
2018-04-29T10:26:43.914Z,50.00
2018-04-29T10:27:43.931Z,50.79
2018-04-29T10:28:43.952Z,48.38
2018-04-29T10:29:43.965Z,47.99
2018-04-29T10:30:43.978Z,48.68
2018-04-29T10:31:43.996Z,46.84
2018-04-29T10:32:44.066Z,48.28
2018-04-29T10:33:44.029Z,48.39
2018-04-29T10:34:44.058Z,46.98
2018-04-29T10:35:44.064Z,46.01
2018-04-29T10:36:44.078Z,47.47
2018-04-29T10:37:44.097Z,47.75
2018-04-29T10:38:44.111Z,45.81
2018-04-29T10:39:44.128Z,47.53
2018-04-29T10:40:44.147Z,48.80
2018-04-29T10:41:44.162Z,48.38
2018-04-29T10:42:44.179Z,46.05
2018-04-29T10:43:44.195Z,45.96
2018-04-29T10:44:44.217Z,46.25
2018-04-29T10:45:44.229Z,47.73
2018-04-29T10:46:44.252Z,44.43
2018-04-29T10:47:44.263Z,44.98
2018-04-29T10:48:44.280Z,45.65
2018-04-29T10:49:44.298Z,46.31
2018-04-29T10:50:44.312Z,46.72
2018-04-29T10:51:44.331Z,44.88
2018-04-29T10:52:44.346Z,44.29
2018-04-29T10:53:44.362Z,46.39
2018-04-29T10:54:44.632Z,48.04
2018-04-29T10:55:44.397Z,45.76
2018-04-29T10:56:44.465Z,45.21
2018-04-29T10:57:44.431Z,44.45
2018-04-29T10:58:44.466Z,44.54
2018-04-29T10:59:44.464Z,43.41
2018-04-29T11:00:44.482Z,42.55
2018-04-29T11:01:44.497Z,41.19
2018-04-29T11:02:44.520Z,41.07
2018-04-29T11:03:44.537Z,41.55
2018-04-29T11:04:44.550Z,41.07
2018-04-29T11:05:44.567Z,42.22
2018-04-29T11:06:44.585Z,42.49
2018-04-29T11:07:44.601Z,44.81
2018-04-29T11:08:44.619Z,43.16
2018-04-29T11:09:44.638Z,43.73
2018-04-29T11:10:44.658Z,43.33
2018-04-29T11:11:44.751Z,43.71
2018-04-29T11:12:44.690Z,44.69
2018-04-29T11:13:44.708Z,47.20
2018-04-29T11:14:44.741Z,42.49
2018-04-29T11:15:44.741Z,43.66
2018-04-29T11:16:44.758Z,42.30
2018-04-29T11:17:44.775Z,42.66
2018-04-29T11:18:44.791Z,42.66
2018-04-29T11:19:44.809Z,42.66
2018-04-29T11:20:44.824Z,43.73
2018-04-29T11:21:44.842Z,44.62
2018-04-29T11:22:44.862Z,43.56
2018-04-29T11:23:44.878Z,42.99
2018-04-29T11:24:44.893Z,42.03
2018-04-29T11:25:44.914Z,42.60
2018-04-29T11:26:44.931Z,43.56
2018-04-29T11:27:44.948Z,42.68
2018-04-29T11:28:44.968Z,43.33
2018-04-29T11:29:44.983Z,43.79
2018-04-29T11:30:45.000Z,44.74
2018-04-29T11:31:45.023Z,45.79
2018-04-29T11:32:45.034Z,46.17
2018-04-29T11:33:45.055Z,46.25
2018-04-29T11:34:45.071Z,46.27
2018-04-29T11:35:45.088Z,45.31
2018-04-29T11:36:45.102Z,45.98
2018-04-29T11:37:45.122Z,44.55
2018-04-29T11:38:45.137Z,42.54
2018-04-29T11:39:45.159Z,42.52
2018-04-29T11:40:45.171Z,44.24
2018-04-29T11:41:45.190Z,44.31
2018-04-29T11:42:45.206Z,45.67
2018-04-29T11:43:45.222Z,46.82
2018-04-29T11:44:45.234Z,44.05
2018-04-29T11:45:45.259Z,45.65
2018-04-29T11:46:45.274Z,45.94
2018-04-29T11:47:45.286Z,45.96
2018-04-29T11:48:45.306Z,45.67
2018-04-29T11:49:45.328Z,45.01
2018-04-29T11:50:45.336Z,44.34
2018-04-29T11:51:45.352Z,44.17
2018-04-29T11:52:45.371Z,42.44
2018-04-29T11:53:45.384Z,41.68
2018-04-29T11:54:45.407Z,43.33
2018-04-29T11:55:45.421Z,43.73
2018-04-29T11:56:45.440Z,41.82
2018-04-29T11:57:45.453Z,42.77
2018-04-29T11:58:45.468Z,39.33
2018-04-29T11:59:45.497Z,38.37
2018-04-29T12:00:45.499Z,39.43
2018-04-29T12:01:45.516Z,39.79
2018-04-29T12:02:45.536Z,40.34
2018-04-29T12:03:45.551Z,41.11
2018-04-29T12:04:45.569Z,42.25
2018-04-29T12:05:45.587Z,43.69
2018-04-29T12:06:45.605Z,43.30
2018-04-29T12:07:45.618Z,42.43
2018-04-29T12:08:45.637Z,43.57
2018-04-29T12:09:45.669Z,42.81
2018-04-29T12:10:45.668Z,42.88
2018-04-29T12:11:45.683Z,43.93
2018-04-29T12:12:45.699Z,43.46
2018-04-29T12:13:45.716Z,43.36
2018-04-29T12:14:45.733Z,43.46
2018-04-29T12:15:45.748Z,43.36
2018-04-29T12:16:45.764Z,43.46
2018-04-29T12:17:45.781Z,43.36
2018-04-29T12:18:45.801Z,42.21
2018-04-29T12:19:45.817Z,43.46
2018-04-29T12:20:45.832Z,44.43
2018-04-29T12:21:45.846Z,43.57
2018-04-29T12:22:45.864Z,42.14
2018-04-29T12:23:45.882Z,42.33
2018-04-29T12:24:45.899Z,42.14
2018-04-29T12:25:45.914Z,40.80
2018-04-29T12:26:45.931Z,40.49
2018-04-29T12:27:45.944Z,41.74
2018-04-29T12:28:45.962Z,41.33
2018-04-29T12:29:45.976Z,42.38
2018-04-29T12:30:45.995Z,43.55
2018-04-29T12:31:46.009Z,44.98
2018-04-29T12:32:46.025Z,44.43
2018-04-29T12:33:46.154Z,45.51
2018-04-29T12:34:46.058Z,45.22
2018-04-29T12:35:46.074Z,43.43
2018-04-29T12:36:46.091Z,42.37
2018-04-29T12:37:46.105Z,42.08
2018-04-29T12:38:46.124Z,41.49
2018-04-29T12:39:46.186Z,42.73
2018-04-29T12:40:46.158Z,46.37
2018-04-29T12:41:46.174Z,42.35
2018-04-29T12:42:46.191Z,43.40
2018-04-29T12:43:46.209Z,42.25
2018-04-29T12:44:46.226Z,42.07
2018-04-29T12:45:46.243Z,41.13
2018-04-29T12:46:46.364Z,40.44
2018-04-29T12:47:46.287Z,40.42
2018-04-29T12:48:46.292Z,41.49
2018-04-29T12:49:46.308Z,42.25
2018-04-29T12:50:46.326Z,41.32
2018-04-29T12:51:46.344Z,41.53
2018-04-29T12:52:46.358Z,40.78
2018-04-29T12:53:46.378Z,38.76